Time;durP1;ratioP1;P1;durP2;ratioP2;P2;SDS_P1;SDS_P2;PMS_P1;PMS_P2;Temp;Humidity;BMP_temperature;BMP_pressure;BME280_temperature;BME280_humidity;BME280_pressure;Samples;Min_cycle;Max_cycle;Signal;HPM_P1;HPM_P2
2022/12/21 00:01:14;;;;;;;73.90;46.97;;;8.50;94.70;;;;;;5036510;28;20199;-66
2022/12/21 00:03:42;;;;;;;70.70;47.83;;;8.50;94.80;;;;;;5035504;28;20253;-66
2022/12/21 00:06:11;;;;;;;72.07;46.17;;;8.50;94.80;;;;;;5033718;28;20586;-66
2022/12/21 00:08:41;;;;;;;70.63;45.57;;;8.50;94.80;;;;;;5034763;28;20374;-66
2022/12/21 00:11:09;;;;;;;70.50;45.67;;;8.40;94.80;;;;;;5032593;28;20577;-66
2022/12/21 00:13:37;;;;;;;70.20;46.23;;;8.40;94.80;;;;;;5035467;28;20639;-66
2022/12/21 00:16:07;;;;;;;67.90;44.93;;;8.40;94.80;;;;;;5031325;28;20623;-66
2022/12/21 00:18:35;;;;;;;66.50;46.20;;;8.30;94.80;;;;;;5040074;28;20212;-66
2022/12/21 00:21:09;;;;;;;66.30;45.10;;;8.40;94.90;;;;;;5030399;28;20227;-67
2022/12/21 00:23:37;;;;;;;64.57;44.33;;;8.30;94.90;;;;;;5034179;28;20558;-66
2022/12/21 00:26:05;;;;;;;75.50;48.07;;;8.30;94.90;;;;;;5033482;28;20199;-66
2022/12/21 00:28:33;;;;;;;72.80;45.97;;;8.30;95.00;;;;;;5037144;28;20229;-66
2022/12/21 00:31:18;;;;;;;73.63;46.43;;;8.30;95.00;;;;;;5034350;28;20216;-66
2022/12/21 00:33:46;;;;;;;74.67;44.43;;;8.30;95.00;;;;;;5024853;28;20648;-66
2022/12/21 00:36:16;;;;;;;65.37;44.33;;;8.20;95.00;;;;;;5033783;28;20203;-66
2022/12/21 00:38:43;;;;;;;68.43;45.10;;;8.20;95.10;;;;;;5034696;28;20230;-67
2022/12/21 00:41:15;;;;;;;69.63;46.67;;;8.20;95.10;;;;;;5035294;28;20621;-66
2022/12/21 00:43:43;;;;;;;71.10;45.00;;;8.20;95.20;;;;;;5029315;28;20283;-66
2022/12/21 00:46:16;;;;;;;72.27;46.73;;;8.20;95.20;;;;;;5031958;28;20199;-66
2022/12/21 00:48:44;;;;;;;71.60;45.23;;;8.20;95.30;;;;;;5035211;28;20211;-66
2022/12/21 00:51:19;;;;;;;75.93;46.47;;;8.20;95.30;;;;;;5034603;28;20208;-67
2022/12/21 00:53:46;;;;;;;74.63;45.30;;;8.20;95.30;;;;;;5032895;28;20527;-66
2022/12/21 00:56:14;;;;;;;73.07;48.10;;;8.20;95.30;;;;;;5030518;28;20211;-66
2022/12/21 00:58:42;;;;;;;74.47;47.50;;;8.20;95.30;;;;;;5036509;28;20307;-66
2022/12/21 01:01:16;;;;;;;77.50;47.97;;;8.20;95.30;;;;;;5040008;28;20221;-66
2022/12/21 01:03:45;;;;;;;78.53;49.10;;;8.20;95.40;;;;;;5035702;28;20303;-66
2022/12/21 01:06:18;;;;;;;73.37;48.20;;;8.20;95.40;;;;;;5032994;28;20212;-66
2022/12/21 01:08:46;;;;;;;76.60;47.37;;;8.20;95.40;;;;;;5034734;28;20203;-66
2022/12/21 01:11:15;;;;;;;77.80;46.40;;;8.20;95.40;;;;;;5032982;28;20231;-66
2022/12/21 01:13:44;;;;;;;76.30;47.77;;;8.20;95.40;;;;;;5044173;28;20271;-66
2022/12/21 01:16:13;;;;;;;79.03;49.20;;;8.20;95.40;;;;;;5032179;28;20193;-66
2022/12/21 01:18:41;;;;;;;84.37;49.47;;;8.20;95.50;;;;;;5035358;28;20196;-67
2022/12/21 01:21:20;;;;;;;75.23;48.50;;;8.10;95.40;;;;;;5029324;28;20562;-66
2022/12/21 01:23:48;;;;;;;75.50;50.20;;;8.10;95.40;;;;;;5028827;28;20203;-66
2022/12/21 01:26:17;;;;;;;79.03;49.70;;;8.10;95.40;;;;;;5032092;28;20191;-66
2022/12/21 01:28:45;;;;;;;77.83;47.53;;;8.10;95.40;;;;;;5019338;28;20242;-65
2022/12/21 01:31:13;;;;;;;80.53;49.97;;;8.10;95.50;;;;;;5036649;28;20656;-66
2022/12/21 01:33:43;;;;;;;80.67;49.00;;;8.10;95.50;;;;;;5034408;28;20223;-66
2022/12/21 01:36:13;;;;;;;76.97;48.23;;;8.10;95.50;;;;;;5033767;28;20191;-66
2022/12/21 01:38:42;;;;;;;77.90;47.63;;;8.10;95.50;;;;;;5035520;28;20208;-66
2022/12/21 01:41:20;;;;;;;82.57;49.47;;;8.10;95.50;;;;;;5035835;28;20277;-66
2022/12/21 01:43:56;;;;;;;77.57;49.87;;;8.10;95.50;;;;;;5038321;28;20214;-66
2022/12/21 01:46:27;;;;;;;80.37;48.80;;;8.10;95.50;;;;;;5034059;28;20206;-66
2022/12/21 01:49:18;;;;;;;79.80;50.17;;;8.20;95.50;;;;;;5037612;28;20628;-66
2022/12/21 01:51:51;;;;;;;71.50;47.27;;;8.10;95.50;;;;;;5034496;28;20214;-66
2022/12/21 01:54:31;;;;;;;73.83;47.53;;;8.20;95.50;;;;;;5037823;28;20218;-66
2022/12/21 01:57:02;;;;;;;69.10;45.60;;;8.20;95.50;;;;;;5036287;28;20210;-66
2022/12/21 01:59:32;;;;;;;69.07;45.07;;;8.10;95.40;;;;;;5039933;28;20199;-66
2022/12/21 02:02:06;;;;;;;69.00;46.17;;;8.10;95.40;;;;;;5040775;28;20632;-66
2022/12/21 02:04:33;;;;;;;70.63;46.57;;;8.10;95.40;;;;;;5034987;28;20295;-66
2022/12/21 02:07:01;;;;;;;78.60;46.90;;;8.10;95.30;;;;;;5032923;28;20583;-66
2022/12/21 02:09:31;;;;;;;70.23;45.93;;;8.10;95.30;;;;;;5036524;28;20199;-66
2022/12/21 02:12:03;;;;;;;70.03;44.90;;;8.10;95.30;;;;;;5038067;28;20234;-66
2022/12/21 02:14:34;;;;;;;70.90;45.93;;;8.10;95.20;;;;;;5032038;28;20210;-66
2022/12/21 02:17:36;;;;;;;67.77;44.77;;;8.10;95.20;;;;;;5038623;28;20281;-66
2022/12/21 02:20:37;;;;;;;71.50;45.80;;;8.10;95.20;;;;;;5037618;28;20210;-66
2022/12/21 02:23:06;;;;;;;68.47;43.37;;;8.10;95.10;;;;;;5033695;28;20215;-66
2022/12/21 02:25:55;;;;;;;72.60;46.33;;;8.00;95.00;;;;;;5035426;28;20261;-66
2022/12/21 02:29:08;;;;;;;72.43;45.33;;;8.00;95.10;;;;;;5036736;28;20195;-66
2022/12/21 02:31:43;;;;;;;68.93;45.13;;;7.90;95.10;;;;;;5041106;28;20267;-66
2022/12/21 02:34:26;;;;;;;71.23;43.57;;;7.90;95.10;;;;;;5035537;28;20200;-66
2022/12/21 02:36:57;;;;;;;73.00;47.30;;;7.90;95.20;;;;;;5033354;28;20250;-66
2022/12/21 02:39:52;;;;;;;74.37;47.63;;;7.90;95.20;;;;;;5033148;28;20191;-66
2022/12/21 02:45:43;;;;;;;72.97;47.23;;;7.90;95.30;;;;;;5028798;28;20295;-66
2022/12/21 02:48:23;;;;;;;74.80;47.47;;;7.90;95.20;;;;;;5037089;28;20196;-66
2022/12/21 02:50:55;;;;;;;74.00;46.90;;;7.90;95.20;;;;;;5032660;28;20206;-66
2022/12/21 02:53:30;;;;;;;77.03;46.20;;;8.00;95.20;;;;;;5036537;28;20206;-66
2022/12/21 02:55:58;;;;;;;71.90;46.13;;;8.00;95.20;;;;;;5033047;28;20211;-66
2022/12/21 02:58:25;;;;;;;81.97;48.67;;;8.00;95.20;;;;;;5040576;28;20286;-66
2022/12/21 03:00:52;;;;;;;75.77;47.30;;;8.00;95.20;;;;;;5036919;28;20701;-66
2022/12/21 03:03:50;;;;;;;73.20;46.27;;;7.90;95.10;;;;;;5027195;28;20203;-66
2022/12/21 03:06:42;;;;;;;75.93;46.73;;;7.90;95.20;;;;;;5028298;28;20200;-66
2022/12/21 03:09:19;;;;;;;72.63;47.60;;;7.90;95.20;;;;;;5036241;28;20191;-66
2022/12/21 03:12:00;;;;;;;76.10;47.93;;;7.90;95.20;;;;;;5034439;28;20235;-66
2022/12/21 03:14:38;;;;;;;72.43;46.43;;;7.90;95.20;;;;;;5047636;28;20720;-66
2022/12/21 03:17:29;;;;;;;79.60;48.73;;;7.90;95.20;;;;;;5034149;28;20198;-66
2022/12/21 03:20:05;;;;;;;71.40;44.83;;;7.90;95.10;;;;;;5024312;28;20230;-66
2022/12/21 03:22:48;;;;;;;73.47;46.40;;;7.90;95.10;;;;;;5030215;28;20622;-66
2022/12/21 03:25:31;;;;;;;72.03;45.33;;;7.90;95.40;;;;;;5032692;28;20196;-66
2022/12/21 03:28:03;;;;;;;70.93;44.93;;;7.90;95.20;;;;;;5037898;28;20195;-66
2022/12/21 03:30:37;;;;;;;74.10;46.73;;;7.90;95.20;;;;;;5034512;28;20541;-66
2022/12/21 03:33:14;;;;;;;72.87;43.97;;;7.90;95.20;;;;;;5036045;28;20264;-66
2022/12/21 03:35:46;;;;;;;77.83;47.40;;;7.90;95.20;;;;;;5033874;28;20581;-66
2022/12/21 03:38:20;;;;;;;75.80;47.00;;;7.90;95.20;;;;;;5035423;28;20583;-66
2022/12/21 03:40:51;;;;;;;76.77;46.20;;;7.90;95.20;;;;;;5038961;28;20290;-66
2022/12/21 03:43:26;;;;;;;69.50;45.27;;;7.90;95.10;;;;;;5034005;28;20211;-66
2022/12/21 03:46:05;;;;;;;69.43;44.47;;;7.90;95.00;;;;;;5033400;28;20195;-66
2022/12/21 03:48:44;;;;;;;71.83;44.67;;;7.90;95.00;;;;;;5035968;28;20256;-66
2022/12/21 03:51:19;;;;;;;73.70;45.57;;;7.90;95.00;;;;;;5030989;28;20604;-66
2022/12/21 03:54:09;;;;;;;68.93;44.40;;;7.90;95.00;;;;;;5032630;28;20249;-66
2022/12/21 03:56:38;;;;;;;69.73;43.67;;;7.90;95.10;;;;;;5033200;28;20207;-66
2022/12/21 03:59:07;;;;;;;71.77;45.53;;;7.80;95.00;;;;;;5032563;28;20279;-66
2022/12/21 04:01:49;;;;;;;70.10;44.63;;;7.80;95.00;;;;;;5035916;28;20698;-66
2022/12/21 04:04:57;;;;;;;73.50;45.17;;;7.80;95.00;;;;;;5033076;28;20191;-66
2022/12/21 04:07:26;;;;;;;72.63;44.67;;;7.80;95.00;;;;;;5034642;28;20279;-66
2022/12/21 04:09:58;;;;;;;73.20;46.00;;;7.80;95.00;;;;;;5037139;28;20632;-65
2022/12/21 04:12:39;;;;;;;71.53;46.40;;;7.80;95.00;;;;;;5035344;28;20318;-66
2022/12/21 04:15:12;;;;;;;67.50;44.33;;;7.80;95.00;;;;;;5033324;28;20207;-66
2022/12/21 04:17:41;;;;;;;67.80;44.30;;;7.80;95.00;;;;;;5048377;28;20548;-66
2022/12/21 04:20:15;;;;;;;70.50;44.90;;;7.80;95.00;;;;;;5033400;28;20225;-66
2022/12/21 04:28:33;;;;;;;69.70;44.40;;;7.80;95.00;;;;;;5036558;28;20203;-66
2022/12/21 04:31:17;;;;;;;72.07;45.47;;;7.80;95.00;;;;;;5032457;28;20253;-66
2022/12/21 04:33:44;;;;;;;69.57;45.40;;;7.80;95.00;;;;;;5035271;28;20211;-66
2022/12/21 04:38:57;;;;;;;68.47;44.63;;;7.80;94.90;;;;;;5036112;28;20199;-66
2022/12/21 04:41:24;;;;;;;72.93;46.57;;;7.80;95.00;;;;;;5033717;28;20227;-66
2022/12/21 04:43:51;;;;;;;75.70;45.30;;;7.80;95.00;;;;;;5030749;28;20555;-66
2022/12/21 04:46:18;;;;;;;72.10;44.53;;;7.80;95.00;;;;;;5030899;28;20204;-66
2022/12/21 04:48:47;;;;;;;78.07;46.20;;;7.80;95.00;;;;;;5032425;28;20294;-67
2022/12/21 04:51:22;;;;;;;75.77;45.07;;;7.80;95.00;;;;;;5032418;28;20211;-66
2022/12/21 04:53:51;;;;;;;69.83;45.13;;;7.90;95.00;;;;;;5033435;28;20198;-66
2022/12/21 04:56:19;;;;;;;73.27;44.50;;;7.80;95.00;;;;;;5035249;28;20280;-66
2022/12/21 04:58:46;;;;;;;79.03;45.97;;;7.80;95.00;;;;;;5039698;28;20264;-66
2022/12/21 05:01:19;;;;;;;71.90;45.60;;;7.80;95.00;;;;;;5034247;28;20224;-66
2022/12/21 05:03:47;;;;;;;77.33;46.80;;;7.80;95.00;;;;;;5035815;28;20199;-66
2022/12/21 05:06:16;;;;;;;69.37;43.33;;;7.80;95.00;;;;;;5029418;28;20372;-66
2022/12/21 05:08:43;;;;;;;67.50;44.40;;;7.80;95.10;;;;;;5030581;28;20201;-66
2022/12/21 05:11:15;;;;;;;72.00;43.83;;;7.80;95.00;;;;;;5035053;28;20266;-66
2022/12/21 05:13:43;;;;;;;68.93;45.70;;;7.80;95.10;;;;;;5037445;28;20222;-66
2022/12/21 05:16:14;;;;;;;69.30;45.70;;;7.80;95.00;;;;;;5037943;28;20621;-66
2022/12/21 05:18:42;;;;;;;73.87;45.00;;;7.80;95.10;;;;;;5040673;28;20203;-66
2022/12/21 05:21:09;;;;;;;71.37;45.13;;;7.90;95.10;;;;;;5031154;28;20215;-66
2022/12/21 05:23:36;;;;;;;71.03;45.20;;;7.90;95.00;;;;;;5037669;28;20721;-66
2022/12/21 05:26:05;;;;;;;62.67;42.77;;;7.90;95.10;;;;;;5035765;28;20285;-66
2022/12/21 05:28:42;;;;;;;74.73;47.40;;;7.90;95.10;;;;;;5038853;28;20298;-66
2022/12/21 05:31:09;;;;;;;65.30;42.50;;;7.90;95.00;;;;;;5035750;28;20277;-66
2022/12/21 05:33:37;;;;;;;72.13;43.80;;;7.90;95.00;;;;;;5034591;28;20294;-66
2022/12/21 05:36:06;;;;;;;68.07;42.73;;;7.80;95.00;;;;;;5033167;28;20198;-66
2022/12/21 05:38:34;;;;;;;74.27;43.67;;;7.80;95.00;;;;;;5037946;28;20207;-66
2022/12/21 05:41:01;;;;;;;63.93;41.47;;;7.80;95.00;;;;;;5038888;28;20631;-66
2022/12/21 05:43:28;;;;;;;67.07;42.57;;;7.90;95.00;;;;;;5037159;28;20203;-66
2022/12/21 05:46:00;;;;;;;70.10;43.20;;;7.80;95.00;;;;;;5036328;28;20225;-66
2022/12/21 05:48:28;;;;;;;72.70;44.00;;;7.80;95.10;;;;;;5036996;28;20241;-66
2022/12/21 05:50:55;;;;;;;70.97;45.27;;;7.80;95.10;;;;;;5037185;28;20203;-66
2022/12/21 05:53:22;;;;;;;71.23;44.50;;;7.80;95.10;;;;;;5036120;28;20200;-66
2022/12/21 05:55:51;;;;;;;74.00;44.43;;;7.80;95.10;;;;;;5038495;28;20204;-66
2022/12/21 05:58:19;;;;;;;71.83;43.13;;;7.80;95.10;;;;;;5037560;28;20226;-66
2022/12/21 06:00:46;;;;;;;67.60;43.03;;;7.80;95.10;;;;;;5039358;28;20214;-66
2022/12/21 06:03:14;;;;;;;67.20;44.33;;;7.80;95.10;;;;;;5035561;28;20196;-66
2022/12/21 06:05:42;;;;;;;69.27;43.57;;;7.80;95.10;;;;;;5034518;28;20613;-66
2022/12/21 06:08:09;;;;;;;67.70;43.73;;;7.80;95.20;;;;;;5037751;28;20290;-66
2022/12/21 06:10:37;;;;;;;61.53;42.10;;;7.80;95.20;;;;;;5041152;28;20622;-66
2022/12/21 06:13:05;;;;;;;75.50;45.93;;;7.80;95.20;;;;;;5036968;28;20248;-66
2022/12/21 06:15:33;;;;;;;76.33;46.47;;;7.80;95.20;;;;;;5035340;28;20261;-64
2022/12/21 06:18:01;;;;;;;69.23;45.00;;;7.80;95.20;;;;;;5039477;28;20313;-65
2022/12/21 06:20:32;;;;;;;67.93;44.63;;;7.80;95.20;;;;;;5033800;28;20277;-64
2022/12/21 06:22:59;;;;;;;69.77;45.40;;;7.80;95.30;;;;;;5035717;28;20203;-64
2022/12/21 06:25:26;;;;;;;77.47;45.77;;;7.90;95.30;;;;;;5035116;28;20227;-65
2022/12/21 06:27:53;;;;;;;75.67;43.27;;;7.80;95.20;;;;;;5043140;28;20207;-65
2022/12/21 06:30:20;;;;;;;71.73;43.53;;;7.80;95.20;;;;;;5039787;28;20203;-66
2022/12/21 06:32:47;;;;;;;64.53;43.27;;;7.90;95.30;;;;;;5038614;28;20213;-66
2022/12/21 06:35:14;;;;;;;72.43;42.87;;;7.80;95.20;;;;;;5034553;28;20211;-66
2022/12/21 06:37:41;;;;;;;69.43;44.53;;;7.80;95.30;;;;;;5037147;28;20218;-66
2022/12/21 06:40:08;;;;;;;69.57;45.30;;;7.80;95.30;;;;;;5038875;28;20286;-66
2022/12/21 06:42:35;;;;;;;65.50;44.47;;;7.80;95.30;;;;;;5036873;28;20602;-66
2022/12/21 06:45:03;;;;;;;70.30;43.03;;;7.90;95.30;;;;;;5035266;28;20249;-66
2022/12/21 06:47:30;;;;;;;72.97;44.80;;;7.90;95.30;;;;;;5034160;28;20528;-66
2022/12/21 06:49:57;;;;;;;68.37;44.37;;;7.80;95.30;;;;;;5032148;28;20206;-66
2022/12/21 06:52:24;;;;;;;70.80;42.47;;;7.80;95.30;;;;;;5034397;28;20203;-66
2022/12/21 06:54:51;;;;;;;69.03;44.07;;;7.80;95.30;;;;;;5033915;28;20204;-66
2022/12/21 06:57:18;;;;;;;73.57;44.30;;;7.90;95.30;;;;;;5032685;28;20206;-66
2022/12/21 06:59:45;;;;;;;69.30;42.23;;;7.80;95.30;;;;;;5036871;28;20207;-66
2022/12/21 07:02:12;;;;;;;73.37;45.17;;;7.90;95.30;;;;;;5039111;28;20680;-66
2022/12/21 07:04:39;;;;;;;70.13;44.73;;;7.80;95.30;;;;;;5033118;28;20202;-66
2022/12/21 07:07:06;;;;;;;69.27;43.90;;;7.90;95.40;;;;;;5031522;28;20592;-66
2022/12/21 07:09:33;;;;;;;80.53;49.40;;;7.90;95.40;;;;;;5036823;28;20199;-66
2022/12/21 07:12:00;;;;;;;89.20;49.73;;;7.90;95.30;;;;;;5036927;28;20320;-66
2022/12/21 07:14:28;;;;;;;80.60;47.97;;;7.90;95.40;;;;;;5036718;28;20199;-66
2022/12/21 07:16:55;;;;;;;79.63;46.57;;;7.90;95.30;;;;;;5032566;28;20211;-66
2022/12/21 07:19:22;;;;;;;69.23;43.93;;;7.90;95.30;;;;;;5037407;28;20191;-66
2022/12/21 07:21:49;;;;;;;68.20;43.07;;;7.90;95.30;;;;;;5034849;28;20630;-66
2022/12/21 07:24:16;;;;;;;67.53;44.23;;;7.90;95.30;;;;;;5034833;28;20222;-66
2022/12/21 07:26:43;;;;;;;66.30;44.60;;;7.90;95.30;;;;;;5038192;28;20195;-66
2022/12/21 07:29:11;;;;;;;66.37;42.60;;;7.90;95.30;;;;;;5038605;28;20211;-66
2022/12/21 07:31:38;;;;;;;69.93;43.27;;;7.90;95.30;;;;;;5033983;28;20663;-66
2022/12/21 07:34:06;;;;;;;70.30;43.53;;;8.00;95.30;;;;;;5032296;28;20215;-68
2022/12/21 07:36:33;;;;;;;70.43;43.67;;;8.00;95.30;;;;;;5034505;28;20203;-66
2022/12/21 07:39:01;;;;;;;69.27;43.47;;;8.00;95.20;;;;;;5035279;28;20554;-66
2022/12/21 07:41:28;;;;;;;76.73;44.73;;;8.10;95.20;;;;;;5037074;28;20625;-66
2022/12/21 07:43:55;;;;;;;66.47;43.60;;;8.10;95.20;;;;;;5036369;28;20202;-66
2022/12/21 07:46:40;;;;;;;66.87;42.47;;;8.10;95.20;;;;;;5032258;28;20333;-66
2022/12/21 07:49:10;;;;;;;71.40;42.97;;;8.10;95.10;;;;;;5028850;28;20214;-66
2022/12/21 07:51:38;;;;;;;65.93;41.83;;;8.20;95.10;;;;;;5033788;28;20292;-66
2022/12/21 07:54:05;;;;;;;66.03;42.43;;;8.20;95.00;;;;;;5034250;28;20234;-66
2022/12/21 07:56:32;;;;;;;63.53;42.57;;;8.20;95.00;;;;;;5035677;28;20207;-65
2022/12/21 07:59:00;;;;;;;60.80;40.97;;;8.20;94.90;;;;;;5032446;28;20540;-66
2022/12/21 08:01:27;;;;;;;72.20;43.27;;;8.30;94.80;;;;;;5035184;28;20219;-66
2022/12/21 08:03:57;;;;;;;64.13;42.13;;;8.20;94.80;;;;;;5030790;28;20210;-66
2022/12/21 08:06:24;;;;;;;67.90;42.63;;;8.30;94.80;;;;;;5028131;28;20218;-66
2022/12/21 08:08:51;;;;;;;63.40;43.50;;;8.30;94.80;;;;;;5036002;28;20587;-66
2022/12/21 08:11:19;;;;;;;70.87;41.53;;;8.30;94.70;;;;;;5035340;28;20235;-66
2022/12/21 08:13:48;;;;;;;78.80;44.53;;;8.30;94.70;;;;;;5033534;28;20611;-66
2022/12/21 08:16:17;;;;;;;79.97;45.83;;;8.40;94.70;;;;;;5030495;28;20533;-66
2022/12/21 08:18:44;;;;;;;78.57;46.20;;;8.40;94.60;;;;;;5032536;28;20203;-66
2022/12/21 08:21:12;;;;;;;87.27;45.93;;;8.40;94.60;;;;;;5032886;28;20559;-66
2022/12/21 08:23:40;;;;;;;91.23;45.97;;;8.50;94.50;;;;;;5033134;28;20203;-66
2022/12/21 08:26:11;;;;;;;92.50;46.60;;;8.50;94.50;;;;;;5035905;28;20541;-66
2022/12/21 08:28:38;;;;;;;98.17;49.53;;;8.50;94.40;;;;;;5035205;28;20187;-65
2022/12/21 08:31:11;;;;;;;97.10;49.63;;;8.60;94.40;;;;;;5036405;28;20221;-66
2022/12/21 08:33:43;;;;;;;97.33;47.53;;;8.60;94.40;;;;;;5032221;28;20203;-65
2022/12/21 08:36:16;;;;;;;106.03;48.70;;;8.60;94.40;;;;;;5033820;28;20203;-65
2022/12/21 08:38:47;;;;;;;107.80;49.60;;;8.70;94.40;;;;;;5032939;28;20200;-67
2022/12/21 08:41:34;;;;;;;105.90;51.37;;;8.70;94.40;;;;;;5035667;28;20297;-64
2022/12/21 08:44:01;;;;;;;107.43;48.57;;;8.70;94.70;;;;;;5032917;28;20210;-66
2022/12/21 08:46:28;;;;;;;103.97;51.30;;;8.70;94.40;;;;;;5037512;28;20216;-64
2022/12/21 08:48:55;;;;;;;101.10;48.97;;;8.80;94.40;;;;;;5035277;28;20223;-65
2022/12/21 08:51:22;;;;;;;108.77;49.63;;;8.80;94.30;;;;;;5037326;28;20557;-65
2022/12/21 08:53:49;;;;;;;113.37;51.83;;;8.80;94.60;;;;;;5036572;28;20663;-66
2022/12/21 08:56:19;;;;;;;111.17;50.50;;;8.80;94.40;;;;;;5037991;28;20198;-64
2022/12/21 08:58:47;;;;;;;101.30;49.60;;;8.80;94.30;;;;;;5043113;28;20211;-65
2022/12/21 09:01:20;;;;;;;102.83;48.77;;;8.80;94.30;;;;;;5040030;28;20214;-65
2022/12/21 09:03:48;;;;;;;114.07;49.67;;;8.80;94.30;;;;;;5037054;28;20617;-65
2022/12/21 09:06:15;;;;;;;112.87;50.60;;;8.90;94.30;;;;;;5034961;28;20192;-64
2022/12/21 09:08:43;;;;;;;110.43;50.37;;;8.90;94.50;;;;;;5039980;28;20204;-63
2022/12/21 09:11:13;;;;;;;95.97;47.60;;;8.90;94.10;;;;;;5037447;28;20247;-64
2022/12/21 09:13:40;;;;;;;101.87;48.57;;;8.90;94.10;;;;;;5039941;28;20200;-67
2022/12/21 09:16:21;;;;;;;102.40;50.53;;;8.90;94.10;;;;;;5033885;28;20563;-67
2022/12/21 09:18:49;;;;;;;103.60;51.57;;;8.90;94.10;;;;;;5036629;28;20628;-63
2022/12/21 09:21:19;;;;;;;112.70;52.10;;;8.90;94.10;;;;;;5037874;28;20202;-64
2022/12/21 09:23:47;;;;;;;117.97;51.47;;;9.00;94.10;;;;;;5036100;28;20196;-65
2022/12/21 09:26:15;;;;;;;98.57;50.37;;;9.00;94.10;;;;;;5038351;28;20211;-66
2022/12/21 09:28:43;;;;;;;116.67;52.30;;;9.10;94.10;;;;;;5039871;28;20589;-65
2022/12/21 09:31:16;;;;;;;114.00;51.13;;;9.10;94.00;;;;;;5032423;28;20195;-65
2022/12/21 09:33:50;;;;;;;107.17;48.80;;;9.10;94.00;;;;;;5025526;28;20571;-65
2022/12/21 09:36:19;;;;;;;119.00;51.80;;;9.10;94.00;;;;;;5037512;28;20196;-65
2022/12/21 09:38:46;;;;;;;110.70;50.33;;;9.10;93.90;;;;;;5036417;28;20204;-65
2022/12/21 09:41:29;;;;;;;114.30;50.90;;;9.10;93.90;;;;;;5022347;28;20203;-65
2022/12/21 09:44:19;;;;;;;107.23;50.63;;;9.10;93.90;;;;;;5039712;28;20262;-65
2022/12/21 09:46:49;;;;;;;119.13;52.63;;;9.10;93.90;;;;;;5034423;28;20279;-65
2022/12/21 09:49:45;;;;;;;108.53;49.50;;;9.10;93.90;;;;;;5037092;28;20199;-65
2022/12/21 09:52:27;;;;;;;115.30;50.83;;;9.10;93.90;;;;;;5035769;28;20684;-65
2022/12/21 09:55:05;;;;;;;121.33;52.37;;;9.10;94.00;;;;;;5035397;28;20265;-65
2022/12/21 09:57:35;;;;;;;106.93;51.13;;;9.00;94.00;;;;;;5017082;28;20220;-65
2022/12/21 10:00:13;;;;;;;115.07;49.93;;;9.00;94.10;;;;;;5039397;28;20209;-65
2022/12/21 10:03:00;;;;;;;117.47;51.20;;;9.00;94.10;;;;;;5038031;28;20218;-64
2022/12/21 10:05:58;;;;;;;113.60;49.30;;;9.00;94.20;;;;;;5035589;28;20323;-64
2022/12/21 10:08:48;;;;;;;111.23;48.43;;;9.00;94.20;;;;;;5037992;28;20752;-66
2022/12/21 10:11:47;;;;;;;101.23;48.20;;;9.00;94.20;;;;;;5036133;28;20701;-64
2022/12/21 10:14:51;;;;;;;122.03;49.97;;;9.00;94.30;;;;;;5036027;28;20219;-63
2022/12/21 10:17:24;;;;;;;112.87;47.17;;;9.00;94.30;;;;;;5037999;28;20285;-64
2022/12/21 10:20:17;;;;;;;116.57;49.63;;;8.90;94.30;;;;;;5038602;28;20206;-63
2022/12/21 10:22:47;;;;;;;108.97;49.87;;;9.00;94.30;;;;;;5036000;28;20216;-64
2022/12/21 10:25:27;;;;;;;100.03;47.23;;;9.00;94.40;;;;;;5036434;28;20205;-64
2022/12/21 10:28:23;;;;;;;102.63;48.27;;;9.00;94.40;;;;;;5042852;28;20659;-63
2022/12/21 10:31:00;;;;;;;100.67;47.03;;;8.90;94.50;;;;;;5038648;28;20215;-63
2022/12/21 10:33:29;;;;;;;90.00;46.30;;;9.00;94.50;;;;;;5035385;28;20208;-63
2022/12/21 10:36:02;;;;;;;94.97;49.57;;;9.00;94.50;;;;;;5033222;28;20241;-64
2022/12/21 10:38:34;;;;;;;90.73;46.37;;;9.00;94.50;;;;;;5037390;28;20583;-65
2022/12/21 10:41:07;;;;;;;102.83;49.97;;;9.00;94.50;;;;;;5020295;28;20208;-64
2022/12/21 10:43:39;;;;;;;101.83;48.53;;;9.10;94.60;;;;;;5035849;28;20218;-65
2022/12/21 10:46:06;;;;;;;85.30;47.13;;;9.10;94.60;;;;;;5034293;28;20189;-65
2022/12/21 10:48:34;;;;;;;82.60;47.27;;;9.10;94.60;;;;;;5032304;28;20591;-65
2022/12/21 10:51:28;;;;;;;85.60;47.63;;;9.10;94.50;;;;;;5036071;28;20200;-65
2022/12/21 10:54:01;;;;;;;84.43;46.97;;;9.10;94.50;;;;;;5034737;28;20663;-65
2022/12/21 10:56:36;;;;;;;82.57;48.07;;;9.10;94.40;;;;;;5037724;28;20199;-65
2022/12/21 10:59:29;;;;;;;81.70;47.20;;;9.00;94.30;;;;;;5037548;28;20222;-64
2022/12/21 11:01:56;;;;;;;82.60;46.93;;;9.10;94.40;;;;;;5038392;28;20604;-63
2022/12/21 11:04:26;;;;;;;84.17;47.37;;;9.00;94.40;;;;;;5036499;28;20199;-64
2022/12/21 11:06:56;;;;;;;84.63;47.23;;;9.10;94.50;;;;;;5034454;28;20194;-63
2022/12/21 11:09:46;;;;;;;84.43;47.83;;;9.10;94.50;;;;;;5038120;28;20589;-64
2022/12/21 11:12:24;;;;;;;79.27;46.97;;;9.10;94.50;;;;;;5034404;28;20675;-64
2022/12/21 11:14:53;;;;;;;85.93;47.73;;;9.10;94.60;;;;;;5034222;28;20628;-65
2022/12/21 11:17:25;;;;;;;91.07;49.70;;;9.20;94.50;;;;;;5030207;28;20199;-63
2022/12/21 11:20:19;;;;;;;101.27;53.60;;;9.20;94.30;;;;;;5031499;28;20211;-65
2022/12/21 11:22:50;;;;;;;99.87;49.20;;;9.20;94.40;;;;;;5034967;28;20342;-64
2022/12/21 11:25:28;;;;;;;99.17;50.57;;;9.20;94.40;;;;;;5036438;28;20228;-65
2022/12/21 11:28:03;;;;;;;103.83;52.57;;;9.20;94.30;;;;;;5038197;28;20289;-64
2022/12/21 11:30:35;;;;;;;97.47;51.37;;;9.10;94.20;;;;;;5034485;28;20644;-66
2022/12/21 11:33:03;;;;;;;99.63;50.47;;;9.20;94.30;;;;;;5047137;28;20219;-65
2022/12/21 11:35:34;;;;;;;95.10;49.57;;;9.20;94.30;;;;;;5031083;28;20283;-66
2022/12/21 11:38:14;;;;;;;92.60;50.23;;;9.20;94.30;;;;;;5033837;28;20216;-66
2022/12/21 11:40:56;;;;;;;89.20;48.50;;;9.10;94.30;;;;;;5036242;28;20284;-66
2022/12/21 11:43:23;;;;;;;88.27;46.87;;;9.10;94.30;;;;;;5033882;28;20223;-65
2022/12/21 11:46:10;;;;;;;88.27;48.57;;;9.10;94.30;;;;;;5033024;28;20222;-66
2022/12/21 11:48:57;;;;;;;78.30;45.10;;;9.20;94.40;;;;;;5030634;28;20463;-66
2022/12/21 11:51:35;;;;;;;80.97;43.80;;;9.20;94.40;;;;;;5034088;28;20731;-66
2022/12/21 11:54:27;;;;;;;74.67;44.73;;;9.20;94.30;;;;;;5034006;28;20208;-66
2022/12/21 11:57:06;;;;;;;83.60;46.83;;;9.20;94.10;;;;;;5031538;28;20199;-66
2022/12/21 11:59:59;;;;;;;82.53;44.80;;;9.20;94.10;;;;;;5037435;28;20196;-66
2022/12/21 12:02:48;;;;;;;75.93;45.33;;;9.10;94.10;;;;;;5034163;28;20243;-65
2022/12/21 12:05:41;;;;;;;83.60;46.03;;;9.20;94.10;;;;;;5033446;28;20201;-66
2022/12/21 12:08:41;;;;;;;69.00;44.23;;;9.10;94.00;;;;;;5035004;28;20212;-66
2022/12/21 12:11:24;;;;;;;75.80;44.30;;;9.10;94.00;;;;;;5032447;28;20240;-66
2022/12/21 12:14:05;;;;;;;71.03;43.33;;;9.10;93.90;;;;;;5033825;28;20203;-66
2022/12/21 12:16:34;;;;;;;77.87;44.87;;;9.10;93.90;;;;;;5032013;28;20200;-66
2022/12/21 12:19:32;;;;;;;77.80;44.30;;;9.10;94.00;;;;;;5035587;28;20261;-66
2022/12/21 12:22:21;;;;;;;76.57;45.40;;;9.20;94.10;;;;;;5032257;28;20207;-66
2022/12/21 12:25:03;;;;;;;77.97;46.73;;;9.10;94.20;;;;;;5033394;28;20210;-65
2022/12/21 12:28:02;;;;;;;78.03;45.17;;;9.20;94.30;;;;;;5034397;28;20231;-66
2022/12/21 12:30:52;;;;;;;76.10;45.77;;;9.20;94.30;;;;;;5031790;28;20218;-66
2022/12/21 12:33:53;;;;;;;80.67;44.93;;;9.20;94.40;;;;;;5033578;28;20251;-66
2022/12/21 12:36:38;;;;;;;85.90;45.80;;;9.20;94.40;;;;;;5035719;28;20342;-66
2022/12/21 12:39:21;;;;;;;79.97;45.10;;;9.30;94.50;;;;;;5037473;28;20512;-66
2022/12/21 12:42:19;;;;;;;74.50;44.67;;;9.20;94.50;;;;;;5036503;28;20213;-66
2022/12/21 12:45:06;;;;;;;84.77;44.63;;;9.20;94.50;;;;;;5031352;28;20215;-65
2022/12/21 12:47:33;;;;;;;83.97;46.23;;;9.20;94.50;;;;;;5031660;28;20564;-66
2022/12/21 12:50:22;;;;;;;85.27;44.77;;;9.30;94.60;;;;;;5031487;28;20196;-66
2022/12/21 12:53:12;;;;;;;80.37;42.97;;;9.30;94.70;;;;;;5033387;28;20198;-65
2022/12/21 12:55:48;;;;;;;77.60;41.80;;;9.20;94.70;;;;;;5032336;28;20210;-66
2022/12/21 12:58:21;;;;;;;76.03;41.33;;;9.20;94.70;;;;;;5036199;28;20228;-66
2022/12/21 13:01:00;;;;;;;72.50;39.67;;;9.30;94.70;;;;;;5033837;28;20565;-65
2022/12/21 13:03:52;;;;;;;58.47;34.37;;;9.30;94.80;;;;;;5033564;28;20662;-66
2022/12/21 13:06:31;;;;;;;70.23;35.00;;;9.30;94.80;;;;;;5033037;28;20201;-66
2022/12/21 13:10:01;;;;;;;57.63;32.33;;;9.30;94.80;;;;;;5041280;28;20196;-65
2022/12/21 13:12:34;;;;;;;64.37;34.40;;;9.30;94.80;;;;;;5029384;28;20268;-66
2022/12/21 13:15:22;;;;;;;64.17;35.47;;;9.30;94.70;;;;;;5026178;28;20213;-66
2022/12/21 13:17:55;;;;;;;60.47;32.27;;;9.30;94.70;;;;;;5029335;28;20723;-66
2022/12/21 13:20:24;;;;;;;58.07;31.70;;;9.30;94.70;;;;;;5036068;28;20264;-66
2022/12/21 13:23:07;;;;;;;55.93;31.83;;;9.40;94.80;;;;;;5035203;28;20236;-65